createdAt,value
2019-04-07T00:01:34.445Z,11.70
2019-04-07T00:04:04.313Z,11.50
2019-04-07T00:06:33.653Z,11.50
2019-04-07T00:09:03.013Z,11.60
2019-04-07T00:21:30.172Z,11.10
2019-04-07T00:24:01.735Z,11.50
2019-04-07T00:28:59.962Z,11.10
2019-04-07T00:31:29.430Z,11.30
2019-04-07T00:36:27.971Z,11.20
2019-04-07T00:41:26.459Z,11.90
2019-04-07T00:56:22.364Z,10.90
2019-04-07T01:01:20.873Z,10.60
2019-04-07T01:03:50.348Z,10.80
2019-04-07T01:08:49.103Z,10.70
2019-04-07T01:11:18.959Z,11.30
2019-04-07T01:16:17.466Z,10.40
2019-04-07T01:26:14.465Z,10.50
2019-04-07T01:28:44.064Z,10.40
2019-04-07T01:31:13.395Z,10.60
2019-04-07T01:33:43.130Z,10.40
2019-04-07T01:38:42.201Z,10.30
2019-04-07T01:41:13.244Z,10.30
2019-04-07T01:54:13.420Z,10.60
2019-04-07T02:02:06.001Z,10.30
2019-04-07T02:04:43.548Z,10.20
2019-04-07T02:20:05.122Z,10.30
2019-04-07T02:22:36.622Z,10.20
2019-04-07T02:25:20.784Z,10.00
2019-04-07T02:27:57.766Z,10.60
2019-04-07T02:30:31.683Z,10.10
2019-04-07T02:33:18.803Z,10.00
2019-04-07T02:35:50.445Z,9.90
2019-04-07T02:41:08.822Z,9.80
2019-04-07T02:43:46.491Z,9.80
2019-04-07T02:49:14.272Z,10.00
2019-04-07T02:57:24.217Z,9.50
2019-04-07T02:59:55.824Z,9.80
2019-04-07T03:02:35.901Z,9.80
2019-04-07T03:05:20.987Z,9.60
2019-04-07T03:18:17.790Z,9.70
2019-04-07T03:23:53.383Z,9.60
2019-04-07T03:29:14.143Z,9.70
2019-04-07T03:31:46.814Z,9.30
2019-04-07T03:34:23.349Z,9.60
2019-04-07T03:37:15.100Z,9.40
2019-04-07T03:39:31.955Z,9.40
2019-04-07T03:44:51.191Z,9.20
2019-04-07T03:47:25.787Z,9.20
2019-04-07T03:52:30.764Z,9.30
2019-04-07T03:55:04.935Z,9.30
2019-04-07T03:57:36.445Z,9.30
2019-04-07T04:05:34.141Z,9.30
2019-04-07T04:10:56.747Z,9.20
2019-04-07T04:28:25.429Z,9.20
2019-04-07T04:33:23.920Z,9.20
2019-04-07T04:35:53.836Z,9.00
2019-04-07T04:38:24.176Z,8.90
2019-04-07T04:40:53.608Z,8.80
2019-04-07T04:43:23.314Z,8.90
2019-04-07T04:48:23.770Z,8.90
2019-04-07T04:50:53.235Z,9.30
2019-04-07T04:55:52.065Z,9.00
2019-04-07T04:58:21.473Z,9.20
2019-04-07T05:03:20.308Z,9.10
2019-04-07T05:08:18.813Z,9.80
2019-04-07T05:10:48.258Z,9.00
2019-04-07T05:18:16.648Z,9.40
2019-04-07T05:25:44.952Z,9.40
2019-04-07T05:28:14.312Z,9.50
2019-04-07T05:33:14.000Z,9.70
2019-04-07T05:35:44.071Z,9.60
2019-04-07T05:38:13.623Z,9.60
2019-04-07T05:50:40.729Z,10.40
2019-04-07T05:58:10.601Z,10.70
2019-04-07T06:03:09.861Z,11.00
2019-04-07T06:05:39.753Z,11.10
2019-04-07T06:10:40.330Z,11.20
2019-04-07T06:18:09.635Z,11.80
2019-04-07T06:25:41.504Z,12.10
2019-04-07T06:30:38.074Z,12.40
2019-04-07T06:35:36.831Z,12.60
2019-04-07T06:38:07.825Z,12.90
2019-04-07T06:43:07.447Z,13.30
2019-04-07T06:45:52.798Z,13.40
2019-04-07T06:53:52.419Z,13.60
2019-04-07T07:01:50.615Z,13.70
2019-04-07T07:07:02.349Z,13.60
2019-04-07T07:12:18.684Z,14.00
2019-04-07T07:17:18.552Z,13.40
2019-04-07T07:20:01.771Z,13.40
2019-04-07T07:25:12.151Z,13.20
2019-04-07T07:27:43.168Z,13.50
2019-04-07T07:37:43.482Z,13.90
2019-04-07T07:47:43.812Z,14.20
2019-04-07T07:50:13.589Z,14.30
2019-04-07T07:55:13.153Z,14.20
2019-04-07T07:57:42.573Z,14.50
2019-04-07T08:00:12.564Z,14.90
2019-04-07T08:02:41.901Z,14.60
2019-04-07T08:07:44.362Z,14.90
2019-04-07T08:10:14.823Z,15.00
2019-04-07T08:25:15.338Z,15.00
2019-04-07T08:27:45.260Z,15.00
2019-04-07T08:40:17.015Z,15.30
2019-04-07T08:42:48.488Z,15.10
2019-04-07T08:45:17.971Z,16.10
2019-04-07T08:47:48.885Z,15.30
2019-04-07T08:50:20.822Z,15.40
2019-04-07T09:00:22.842Z,15.90
2019-04-07T09:28:55.439Z,16.20
2019-04-07T09:36:49.930Z,16.10
2019-04-07T09:39:53.839Z,15.90
2019-04-07T10:00:14.461Z,16.30
2019-04-07T10:08:19.508Z,16.40
2019-04-07T10:16:32.076Z,16.40
2019-04-07T10:27:04.657Z,16.50
2019-04-07T10:29:43.824Z,16.40
2019-04-07T10:59:18.578Z,16.90
2019-04-07T11:01:53.408Z,16.60
2019-04-07T11:09:51.166Z,16.90
2019-04-07T11:12:34.685Z,17.00
2019-04-07T11:25:46.112Z,16.90
2019-04-07T11:31:16.821Z,17.00
2019-04-07T11:41:39.231Z,17.30
2019-04-07T11:44:26.402Z,17.20
2019-04-07T11:49:47.454Z,17.30
2019-04-07T11:57:45.622Z,17.60
2019-04-07T12:00:23.787Z,17.60
2019-04-07T12:10:58.450Z,17.80
2019-04-07T12:16:09.269Z,17.60
2019-04-07T12:24:09.749Z,17.10
2019-04-07T12:31:53.289Z,17.60
2019-04-07T12:47:49.351Z,17.60
2019-04-07T12:50:32.823Z,17.50
2019-04-07T12:55:53.360Z,17.80
2019-04-07T13:03:49.519Z,17.70
2019-04-07T13:06:20.616Z,17.80
2019-04-07T13:24:51.859Z,18.80
2019-04-07T13:27:37.214Z,17.90
2019-04-07T13:30:19.188Z,18.10
2019-04-07T13:35:28.644Z,17.70
2019-04-07T13:38:17.854Z,18.00
2019-04-07T13:40:52.025Z,18.00
2019-04-07T13:56:28.573Z,18.10
2019-04-07T13:59:16.065Z,18.10
2019-04-07T14:01:54.562Z,17.90
2019-04-07T14:04:42.382Z,18.10
2019-04-07T14:07:19.840Z,17.90
2019-04-07T14:12:41.147Z,17.90
2019-04-07T14:23:06.152Z,17.90
2019-04-07T14:41:43.481Z,17.90
2019-04-07T14:44:15.122Z,18.50
2019-04-07T14:46:52.385Z,17.90
2019-04-07T14:49:39.540Z,17.90
2019-04-07T14:57:29.185Z,18.20
2019-04-07T15:02:41.196Z,18.40
2019-04-07T15:07:44.021Z,18.00
2019-04-07T15:10:20.133Z,18.10
2019-04-07T15:17:56.172Z,17.90
2019-04-07T15:20:25.543Z,17.90
2019-04-07T15:27:58.918Z,18.10
2019-04-07T15:30:27.670Z,17.80
2019-04-07T15:35:28.027Z,18.00
2019-04-07T15:40:26.565Z,17.90
2019-04-07T15:45:26.645Z,18.00
2019-04-07T15:47:56.475Z,18.30
2019-04-07T15:52:56.892Z,17.90
2019-04-07T16:05:27.858Z,18.00
2019-04-07T16:07:57.777Z,18.10
2019-04-07T16:12:58.806Z,17.90
2019-04-07T16:15:27.431Z,17.90
2019-04-07T16:37:58.374Z,17.90
2019-04-07T16:43:07.731Z,17.50
2019-04-07T16:50:28.271Z,17.50
2019-04-07T16:58:14.602Z,17.70
2019-04-07T17:05:43.067Z,17.30
2019-04-07T17:10:42.530Z,17.40
2019-04-07T17:18:39.792Z,17.30
2019-04-07T17:28:46.036Z,17.10
2019-04-07T17:31:15.548Z,17.00
2019-04-07T17:44:06.999Z,16.80
2019-04-07T17:46:40.774Z,16.70
2019-04-07T17:52:11.201Z,16.50
2019-04-07T17:54:58.935Z,16.50
2019-04-07T18:00:21.643Z,16.50
2019-04-07T18:05:31.277Z,16.30
2019-04-07T18:11:07.588Z,16.00
2019-04-07T18:13:57.457Z,16.30
2019-04-07T18:16:40.778Z,16.10
2019-04-07T18:22:08.182Z,15.90
2019-04-07T18:27:25.452Z,15.80
2019-04-07T18:40:58.440Z,15.60
2019-04-07T18:48:53.331Z,15.70
2019-04-07T18:59:23.503Z,15.40
2019-04-07T19:01:57.836Z,15.30
2019-04-07T19:04:44.547Z,15.20
2019-04-07T19:09:50.844Z,15.70
2019-04-07T19:15:06.647Z,15.20
2019-04-07T19:17:36.212Z,15.30
2019-04-07T19:20:26.549Z,15.30
2019-04-07T19:28:25.135Z,15.10
2019-04-07T19:33:35.664Z,15.40
2019-04-07T19:36:15.344Z,14.90
2019-04-07T19:38:54.375Z,14.90
2019-04-07T19:41:41.369Z,14.90
2019-04-07T19:47:14.180Z,14.90
2019-04-07T19:50:01.059Z,14.70
2019-04-07T19:52:50.315Z,14.50
2019-04-07T19:58:26.731Z,14.60
2019-04-07T20:01:06.685Z,14.50
2019-04-07T20:03:40.172Z,14.60
2019-04-07T20:19:40.269Z,14.50
2019-04-07T20:27:32.305Z,14.30
2019-04-07T20:35:27.257Z,14.40
2019-04-07T20:48:59.266Z,14.10
2019-04-07T20:51:36.873Z,14.10
2019-04-07T20:56:57.479Z,14.30
2019-04-07T20:59:31.443Z,14.00
2019-04-07T21:04:42.180Z,14.00
2019-04-07T21:07:25.006Z,14.30
2019-04-07T21:12:31.483Z,13.60
2019-04-07T21:33:11.168Z,13.80
2019-04-07T21:35:42.643Z,13.70
2019-04-07T21:38:24.432Z,13.80
2019-04-07T21:46:34.956Z,13.30
2019-04-07T21:59:39.799Z,13.40
2019-04-07T22:02:13.693Z,13.40
2019-04-07T22:04:54.075Z,13.40
2019-04-07T22:07:35.530Z,13.30
2019-04-07T22:10:09.441Z,13.20
2019-04-07T22:12:38.936Z,12.90
2019-04-07T22:25:10.141Z,12.50
2019-04-07T22:30:11.774Z,13.00
2019-04-07T22:32:41.151Z,12.80
2019-04-07T22:37:40.063Z,12.80
2019-04-07T22:42:51.186Z,12.60
2019-04-07T22:47:52.416Z,12.40
2019-04-07T22:50:22.274Z,12.70
2019-04-07T22:52:52.205Z,12.60
2019-04-07T22:55:21.602Z,12.70
2019-04-07T23:02:56.478Z,12.60
2019-04-07T23:10:25.116Z,12.40
2019-04-07T23:12:55.250Z,12.50
2019-04-07T23:15:37.285Z,12.20
2019-04-07T23:17:55.911Z,12.20
2019-04-07T23:22:54.391Z,12.00
2019-04-07T23:27:52.811Z,11.90
2019-04-07T23:30:24.317Z,11.90
2019-04-07T23:35:22.980Z,12.00
2019-04-07T23:37:52.314Z,12.20
2019-04-07T23:42:50.977Z,11.90
2019-04-07T23:47:50.361Z,11.90
2019-04-07T23:55:20.377Z,11.60
2019-04-07T23:57:52.183Z,11.70
